createdAt,value
2023-05-14T00:02:07.080Z,9.68
2023-05-14T00:04:36.773Z,9.88
2023-05-14T00:07:06.444Z,9.77
2023-05-14T00:09:36.967Z,9.88
2023-05-14T00:12:08.906Z,9.25
2023-05-14T00:14:38.462Z,9.95
2023-05-14T00:17:08.656Z,10.30
2023-05-14T00:19:38.234Z,9.73
2023-05-14T00:22:07.956Z,9.60
2023-05-14T00:24:38.307Z,9.93
2023-05-14T00:27:08.850Z,9.63
2023-05-14T00:29:38.443Z,8.90
2023-05-14T00:32:08.471Z,12.90
2023-05-14T00:34:38.267Z,10.35
2023-05-14T00:37:07.936Z,10.60
2023-05-14T00:39:37.597Z,12.00
2023-05-14T00:42:07.532Z,8.93
2023-05-14T00:44:38.321Z,8.75
2023-05-14T00:47:08.987Z,9.32
2023-05-14T00:49:41.619Z,11.32
2023-05-14T00:52:11.907Z,7.75
2023-05-14T00:54:41.698Z,6.50
2023-05-14T00:57:11.652Z,6.38
2023-05-14T00:59:43.435Z,7.50
2023-05-14T01:02:13.778Z,8.35
2023-05-14T01:04:43.612Z,7.30
2023-05-14T01:07:26.536Z,8.32
2023-05-14T01:10:10.900Z,8.15
2023-05-14T01:13:20.142Z,8.43
2023-05-14T01:15:50.843Z,7.90
2023-05-14T01:18:21.792Z,6.28
2023-05-14T01:20:54.287Z,6.93
2023-05-14T01:23:23.948Z,6.20
2023-05-14T01:25:53.648Z,6.57
2023-05-14T01:28:34.417Z,6.53
2023-05-14T01:31:15.878Z,6.25
2023-05-14T01:33:47.117Z,6.35
2023-05-14T01:36:17.243Z,5.40
2023-05-14T01:38:48.876Z,5.20
2023-05-14T01:41:20.351Z,4.32
2023-05-14T01:43:50.280Z,3.45
2023-05-14T01:46:23.478Z,3.42
2023-05-14T01:48:53.057Z,3.50
2023-05-14T01:51:22.749Z,3.50
2023-05-14T01:53:52.771Z,4.18
2023-05-14T01:56:25.202Z,4.15
2023-05-14T01:58:54.808Z,3.95
2023-05-14T02:01:24.873Z,3.75
2023-05-14T02:03:54.687Z,3.80
2023-05-14T02:06:24.390Z,3.83
2023-05-14T02:08:53.904Z,3.88
2023-05-14T02:11:23.607Z,3.63
2023-05-14T02:13:53.266Z,3.70
2023-05-14T02:16:22.863Z,3.65
2023-05-14T02:18:52.491Z,3.72
2023-05-14T02:21:22.339Z,3.60
2023-05-14T02:23:52.882Z,3.70
2023-05-14T02:26:23.149Z,3.45
2023-05-14T02:28:52.899Z,3.42
2023-05-14T02:31:22.702Z,3.67
2023-05-14T02:33:53.073Z,3.65
2023-05-14T02:36:22.652Z,4.00
2023-05-14T02:38:52.333Z,4.00
2023-05-14T02:41:23.165Z,4.20
2023-05-14T02:43:52.685Z,3.70
2023-05-14T02:46:22.350Z,3.92
2023-05-14T02:48:52.031Z,4.68
2023-05-14T02:51:23.120Z,3.65
2023-05-14T02:53:52.686Z,4.32
2023-05-14T02:56:22.924Z,3.75
2023-05-14T02:58:52.453Z,3.58
2023-05-14T03:01:22.756Z,4.25
2023-05-14T03:03:52.759Z,3.97
2023-05-14T03:06:22.241Z,3.95
2023-05-14T03:08:52.277Z,3.97
2023-05-14T03:11:22.292Z,3.83
2023-05-14T03:13:51.918Z,4.43
2023-05-14T03:16:21.531Z,3.47
2023-05-14T03:18:51.338Z,4.38
2023-05-14T03:21:21.067Z,4.32
2023-05-14T03:23:50.814Z,3.78
2023-05-14T03:26:20.354Z,3.47
2023-05-14T03:28:49.977Z,3.60
2023-05-14T03:31:19.613Z,4.40
2023-05-14T03:33:49.446Z,4.13
2023-05-14T03:36:19.074Z,3.65
2023-05-14T03:38:48.683Z,3.97
2023-05-14T03:41:20.141Z,4.13
2023-05-14T03:43:49.826Z,3.92
2023-05-14T03:46:19.395Z,4.10
2023-05-14T03:48:49.027Z,4.80
2023-05-14T03:51:18.771Z,2.55
2023-05-14T03:53:48.360Z,2.55
2023-05-14T03:56:18.068Z,1.48
2023-05-14T03:58:47.658Z,1.75
2023-05-14T04:01:17.394Z,1.40
2023-05-14T04:03:47.553Z,2.42
2023-05-14T04:06:17.860Z,1.65
2023-05-14T04:08:47.596Z,2.45
2023-05-14T04:11:17.123Z,2.08
2023-05-14T04:13:46.796Z,2.40
2023-05-14T04:16:16.436Z,2.35
2023-05-14T04:18:46.246Z,1.98
2023-05-14T04:21:16.017Z,1.30
2023-05-14T04:23:45.674Z,2.03
2023-05-14T04:26:15.201Z,1.70
2023-05-14T04:28:44.746Z,1.60
2023-05-14T04:31:15.024Z,1.83
2023-05-14T04:33:44.689Z,2.00
2023-05-14T04:36:14.364Z,1.65
2023-05-14T04:38:44.008Z,1.95
2023-05-14T04:41:13.612Z,2.38
2023-05-14T04:43:43.215Z,1.80
2023-05-14T04:46:13.272Z,2.35
2023-05-14T04:48:43.613Z,2.47
2023-05-14T04:51:13.303Z,2.85
2023-05-14T04:53:42.926Z,2.63
2023-05-14T04:56:12.696Z,2.75
2023-05-14T04:58:42.638Z,2.60
2023-05-14T05:01:12.335Z,2.72
2023-05-14T05:03:42.147Z,2.70
2023-05-14T05:06:11.899Z,2.60
2023-05-14T05:08:41.632Z,3.05
2023-05-14T05:11:11.263Z,2.92
2023-05-14T05:13:40.846Z,2.53
2023-05-14T05:16:10.660Z,3.03
2023-05-14T05:18:40.807Z,3.47
2023-05-14T05:21:10.522Z,2.70
2023-05-14T05:23:40.187Z,2.45
2023-05-14T05:26:09.889Z,2.85
2023-05-14T05:28:39.561Z,3.47
2023-05-14T05:31:09.693Z,3.15
2023-05-14T05:33:39.473Z,3.08
2023-05-14T05:36:09.235Z,2.53
2023-05-14T05:38:39.395Z,2.97
2023-05-14T05:41:09.288Z,2.30
2023-05-14T05:43:38.859Z,3.08
2023-05-14T05:46:09.306Z,2.45
2023-05-14T05:48:38.913Z,2.63
2023-05-14T05:51:08.548Z,2.63
2023-05-14T05:53:38.153Z,2.40
2023-05-14T05:56:08.595Z,2.60
2023-05-14T05:58:38.144Z,3.00
2023-05-14T06:01:08.246Z,2.45
2023-05-14T06:03:38.083Z,2.75
2023-05-14T06:06:08.101Z,2.72
2023-05-14T06:08:37.728Z,3.70
2023-05-14T06:11:07.506Z,3.20
2023-05-14T06:13:37.262Z,3.50
2023-05-14T06:16:07.094Z,3.30
2023-05-14T06:18:36.725Z,2.92
2023-05-14T06:21:06.526Z,3.60
2023-05-14T06:23:36.238Z,3.58
2023-05-14T06:26:05.946Z,3.40
2023-05-14T06:28:35.451Z,3.03
2023-05-14T06:31:04.980Z,3.47
2023-05-14T06:33:34.601Z,3.35
2023-05-14T06:36:07.459Z,2.83
2023-05-14T06:38:37.123Z,3.33
2023-05-14T06:41:06.729Z,3.72
2023-05-14T06:43:36.381Z,3.55
2023-05-14T06:46:05.992Z,3.20
2023-05-14T06:48:35.711Z,3.13
2023-05-14T06:51:05.564Z,3.63
2023-05-14T06:53:35.201Z,4.40
2023-05-14T06:56:04.860Z,3.75
2023-05-14T06:58:34.522Z,3.92
2023-05-14T07:01:04.180Z,3.72
2023-05-14T07:03:33.749Z,3.92
2023-05-14T07:06:03.355Z,3.83
2023-05-14T07:08:32.926Z,3.58
2023-05-14T07:11:02.492Z,3.85
2023-05-14T07:13:32.449Z,4.57
2023-05-14T07:16:02.107Z,3.97
2023-05-14T07:18:31.767Z,4.97
2023-05-14T07:21:01.502Z,4.32
2023-05-14T07:23:31.071Z,5.07
2023-05-14T07:26:00.733Z,4.60
2023-05-14T07:28:30.350Z,4.90
2023-05-14T07:31:00.155Z,5.38
2023-05-14T07:33:29.911Z,5.32
2023-05-14T07:35:59.552Z,4.65
2023-05-14T07:38:29.277Z,4.43
2023-05-14T07:40:58.823Z,4.93
2023-05-14T07:43:28.788Z,4.97
2023-05-14T07:45:58.423Z,5.18
2023-05-14T07:48:28.186Z,4.63
2023-05-14T07:50:57.853Z,5.15
2023-05-14T07:53:28.472Z,4.75
2023-05-14T07:55:58.174Z,3.80
2023-05-14T07:58:29.485Z,4.70
2023-05-14T08:00:59.347Z,4.43
2023-05-14T08:03:29.173Z,4.18
2023-05-14T08:05:58.738Z,4.20
2023-05-14T08:08:29.109Z,5.00
2023-05-14T08:10:58.762Z,4.40
2023-05-14T08:13:28.485Z,4.95
2023-05-14T08:15:58.190Z,4.10
2023-05-14T08:18:27.857Z,3.80
2023-05-14T08:20:57.875Z,4.70
2023-05-14T08:23:28.906Z,4.00
2023-05-14T08:25:58.555Z,4.45
2023-05-14T08:28:28.096Z,4.50
2023-05-14T08:30:57.776Z,4.60
2023-05-14T08:33:27.397Z,4.13
2023-05-14T08:35:57.930Z,4.45
2023-05-14T08:38:28.492Z,4.00
2023-05-14T08:41:02.505Z,4.13
2023-05-14T08:44:00.231Z,3.92
2023-05-14T08:46:31.846Z,4.07
2023-05-14T08:49:27.417Z,4.45
2023-05-14T08:51:58.103Z,5.15
2023-05-14T08:54:28.744Z,4.43
2023-05-14T08:56:58.465Z,4.75
2023-05-14T08:59:28.702Z,4.88
2023-05-14T09:02:03.086Z,4.40
2023-05-14T09:04:33.075Z,4.50
2023-05-14T09:07:04.243Z,4.05
2023-05-14T09:09:33.983Z,3.70
2023-05-14T09:12:03.941Z,3.70
2023-05-14T09:14:35.088Z,4.45
2023-05-14T09:17:05.191Z,4.35
2023-05-14T09:19:34.941Z,4.68
2023-05-14T09:22:10.108Z,4.35
2023-05-14T09:24:40.520Z,4.15
2023-05-14T09:27:11.747Z,4.07
2023-05-14T09:29:41.340Z,4.97
2023-05-14T09:32:12.510Z,4.10
2023-05-14T09:34:42.879Z,5.03
2023-05-14T09:37:12.747Z,4.75
2023-05-14T09:39:42.377Z,4.72
2023-05-14T09:42:12.311Z,4.47
2023-05-14T09:44:42.167Z,4.45
2023-05-14T09:47:11.831Z,4.70
2023-05-14T09:49:42.625Z,4.43
2023-05-14T09:52:13.780Z,4.50
2023-05-14T09:54:43.421Z,4.00
2023-05-14T09:57:13.014Z,4.63
2023-05-14T09:59:42.783Z,4.88
2023-05-14T10:02:28.991Z,4.15
2023-05-14T10:05:05.354Z,4.78
2023-05-14T10:07:53.451Z,5.10
2023-05-14T10:10:25.707Z,5.15
2023-05-14T10:13:05.759Z,5.20
2023-05-14T10:16:01.998Z,4.72
2023-05-14T10:18:35.379Z,5.80
2023-05-14T10:21:09.511Z,5.85
2023-05-14T10:23:39.853Z,4.85
2023-05-14T10:26:11.185Z,5.43
2023-05-14T10:28:41.056Z,5.72
2023-05-14T10:31:12.484Z,5.05
2023-05-14T10:33:52.803Z,5.30
2023-05-14T10:36:23.996Z,5.85
2023-05-14T10:38:58.994Z,6.05
2023-05-14T10:41:28.613Z,5.10
2023-05-14T10:44:01.296Z,5.85
2023-05-14T10:46:31.082Z,5.55
2023-05-14T10:49:02.143Z,5.65
2023-05-14T10:51:34.052Z,5.38
2023-05-14T10:54:03.805Z,5.20
2023-05-14T10:56:35.040Z,5.38
2023-05-14T10:59:05.283Z,5.70
2023-05-14T11:01:35.254Z,4.85
2023-05-14T11:04:06.147Z,5.55
2023-05-14T11:06:36.474Z,4.90
2023-05-14T11:09:06.865Z,5.25
2023-05-14T11:11:37.303Z,6.13
2023-05-14T11:14:08.418Z,5.18
2023-05-14T11:16:39.525Z,5.47
2023-05-14T11:19:09.244Z,5.13
2023-05-14T11:21:38.886Z,5.25
2023-05-14T11:24:09.094Z,5.47
2023-05-14T11:26:38.938Z,4.85
2023-05-14T11:29:08.804Z,5.13
2023-05-14T11:31:38.940Z,4.65
2023-05-14T11:34:10.222Z,5.07
2023-05-14T11:36:40.053Z,4.95
2023-05-14T11:39:09.920Z,5.35
2023-05-14T11:41:45.554Z,5.30
2023-05-14T11:44:15.368Z,5.30
2023-05-14T11:47:00.113Z,6.25
2023-05-14T11:49:32.085Z,6.55
2023-05-14T11:52:09.382Z,5.82
2023-05-14T11:54:39.449Z,5.63
2023-05-14T11:57:15.587Z,5.25
2023-05-14T11:59:45.387Z,5.80
2023-05-14T12:02:17.132Z,5.20
2023-05-14T12:04:51.531Z,5.43
2023-05-14T12:07:21.247Z,5.78
2023-05-14T12:09:51.740Z,5.68
2023-05-14T12:12:23.472Z,5.93
2023-05-14T12:14:54.689Z,5.75
2023-05-14T12:17:25.757Z,6.97
2023-05-14T12:19:55.558Z,5.25
2023-05-14T12:22:25.676Z,8.07
2023-05-14T12:24:59.913Z,6.13
2023-05-14T12:27:31.346Z,6.40
2023-05-14T12:30:20.781Z,6.18
2023-05-14T12:32:54.185Z,7.25
2023-05-14T12:35:24.458Z,8.10
2023-05-14T12:37:54.373Z,6.50
2023-05-14T12:40:24.145Z,6.40
2023-05-14T12:42:55.469Z,6.45
2023-05-14T12:45:26.373Z,6.45
2023-05-14T12:47:56.037Z,6.72
2023-05-14T12:50:26.542Z,7.15
2023-05-14T12:52:56.404Z,6.68
2023-05-14T12:55:26.107Z,7.20
2023-05-14T12:57:56.365Z,7.22
2023-05-14T13:00:26.333Z,6.68
2023-05-14T13:02:56.065Z,7.25
2023-05-14T13:05:25.992Z,6.63
2023-05-14T13:07:55.950Z,7.40
2023-05-14T13:10:25.506Z,6.90
2023-05-14T13:12:55.102Z,6.97
2023-05-14T13:15:25.473Z,7.57
2023-05-14T13:17:55.373Z,7.53
2023-05-14T13:20:25.314Z,7.47
2023-05-14T13:22:54.934Z,7.45
2023-05-14T13:25:25.030Z,7.35
2023-05-14T13:27:55.153Z,7.05
2023-05-14T13:30:24.784Z,7.50
2023-05-14T13:32:54.667Z,7.85
2023-05-14T13:35:24.672Z,8.32
2023-05-14T13:37:54.486Z,7.18
2023-05-14T13:40:24.205Z,7.82
2023-05-14T13:42:53.847Z,8.18
2023-05-14T13:45:23.675Z,7.00
2023-05-14T13:47:53.481Z,7.38
2023-05-14T13:50:23.892Z,6.85
2023-05-14T13:52:53.829Z,8.20
2023-05-14T13:55:23.598Z,7.35
2023-05-14T13:57:53.474Z,7.30
2023-05-14T14:00:23.640Z,7.85
2023-05-14T14:02:53.325Z,7.82
2023-05-14T14:05:23.284Z,7.85
2023-05-14T14:07:57.436Z,7.97
2023-05-14T14:10:38.270Z,7.72
2023-05-14T14:13:08.583Z,8.05
2023-05-14T14:15:39.124Z,7.60
2023-05-14T14:18:08.890Z,7.25
2023-05-14T14:20:38.546Z,7.38
2023-05-14T14:23:08.141Z,8.38
2023-05-14T14:25:40.258Z,7.32
2023-05-14T14:28:09.958Z,8.32
2023-05-14T14:30:39.589Z,8.13
2023-05-14T14:33:09.239Z,8.75
2023-05-14T14:35:39.434Z,7.82
2023-05-14T14:38:09.036Z,7.63
2023-05-14T14:40:38.693Z,8.13
2023-05-14T14:43:08.524Z,8.20
2023-05-14T14:45:38.240Z,9.10
2023-05-14T14:48:41.479Z,9.10
2023-05-14T14:51:11.877Z,9.05
2023-05-14T14:53:42.153Z,9.45
2023-05-14T14:56:11.832Z,9.45
2023-05-14T14:58:41.603Z,9.93
2023-05-14T15:01:11.422Z,10.02
2023-05-14T15:03:41.204Z,9.75
2023-05-14T15:06:11.029Z,8.90
2023-05-14T15:08:40.637Z,8.60
2023-05-14T15:11:10.915Z,9.65
2023-05-14T15:13:41.735Z,9.85
2023-05-14T15:16:11.464Z,9.30
2023-05-14T15:18:41.094Z,10.07
2023-05-14T15:21:10.886Z,9.63
2023-05-14T15:23:40.454Z,9.25
2023-05-14T15:26:10.286Z,9.40
2023-05-14T15:28:39.883Z,10.27
2023-05-14T15:31:09.647Z,9.02
2023-05-14T15:33:39.458Z,8.90
2023-05-14T15:36:09.346Z,8.65
2023-05-14T15:38:39.260Z,9.38
2023-05-14T15:41:09.219Z,8.95
2023-05-14T15:43:38.851Z,8.63
2023-05-14T15:46:08.522Z,9.15
2023-05-14T15:48:38.509Z,8.88
2023-05-14T15:51:08.100Z,9.48
2023-05-14T15:53:37.868Z,9.38
2023-05-14T15:56:07.761Z,9.68
2023-05-14T15:58:37.415Z,9.80
2023-05-14T16:01:07.261Z,9.13
2023-05-14T16:03:37.100Z,8.77
2023-05-14T16:06:07.248Z,9.40
2023-05-14T16:08:39.096Z,9.50
2023-05-14T16:11:09.255Z,9.63
2023-05-14T16:13:40.089Z,9.88
2023-05-14T16:16:10.037Z,9.40
2023-05-14T16:18:40.633Z,10.13
2023-05-14T16:21:10.521Z,9.18
2023-05-14T16:23:40.114Z,9.30
2023-05-14T16:26:09.732Z,9.85
2023-05-14T16:28:42.770Z,9.73
2023-05-14T16:31:12.418Z,9.82
2023-05-14T16:33:42.102Z,10.10
2023-05-14T16:36:12.167Z,10.38
2023-05-14T16:38:48.331Z,10.98
2023-05-14T16:41:26.815Z,11.02
2023-05-14T16:43:56.442Z,12.52
2023-05-14T16:46:26.082Z,13.20
2023-05-14T16:48:56.015Z,13.10
2023-05-14T16:51:25.788Z,12.95
2023-05-14T16:53:55.713Z,13.68
2023-05-14T16:56:25.505Z,12.65
2023-05-14T16:58:55.262Z,13.45
2023-05-14T17:01:24.863Z,12.35
2023-05-14T17:03:54.539Z,13.43
2023-05-14T17:06:24.185Z,11.98
2023-05-14T17:08:53.838Z,12.30
2023-05-14T17:11:23.587Z,11.70
2023-05-14T17:13:53.156Z,12.85
2023-05-14T17:16:23.623Z,11.23
2023-05-14T17:18:53.302Z,12.05
2023-05-14T17:21:22.943Z,12.77
2023-05-14T17:23:52.696Z,12.57
2023-05-14T17:26:22.898Z,11.95
2023-05-14T17:28:52.595Z,12.55
2023-05-14T17:31:23.533Z,12.63
2023-05-14T17:33:53.285Z,11.50
2023-05-14T17:36:22.944Z,12.25
2023-05-14T17:38:52.602Z,10.82
2023-05-14T17:41:23.431Z,12.90
2023-05-14T17:43:54.102Z,11.98
2023-05-14T17:46:23.931Z,10.90
2023-05-14T17:48:53.673Z,12.32
2023-05-14T17:51:23.476Z,11.15
2023-05-14T17:53:53.242Z,10.73
2023-05-14T17:56:22.853Z,11.10
2023-05-14T17:58:52.579Z,12.10
2023-05-14T18:01:22.144Z,11.70
2023-05-14T18:03:51.987Z,11.82
2023-05-14T18:06:21.635Z,12.10
2023-05-14T18:08:51.606Z,12.20
2023-05-14T18:11:21.262Z,11.88
2023-05-14T18:13:50.857Z,12.27
2023-05-14T18:16:20.528Z,12.85
2023-05-14T18:18:50.165Z,12.00
2023-05-14T18:21:19.882Z,12.93
2023-05-14T18:23:49.561Z,13.23
2023-05-14T18:26:19.304Z,12.23
2023-05-14T18:28:48.924Z,13.43
2023-05-14T18:31:18.592Z,12.55
2023-05-14T18:33:48.388Z,12.20
2023-05-14T18:36:19.545Z,12.05
2023-05-14T18:38:49.214Z,11.82
2023-05-14T18:41:19.003Z,12.32
2023-05-14T18:43:48.559Z,11.75
2023-05-14T18:46:18.347Z,13.18
2023-05-14T18:48:47.988Z,12.15
2023-05-14T18:51:17.678Z,12.75
2023-05-14T18:53:47.333Z,11.35
2023-05-14T18:56:17.241Z,11.93
2023-05-14T18:58:47.022Z,12.68
2023-05-14T19:01:16.603Z,12.25
2023-05-14T19:03:46.446Z,12.18
2023-05-14T19:06:16.205Z,11.85
2023-05-14T19:08:45.995Z,11.02
2023-05-14T19:11:15.711Z,12.95
2023-05-14T19:13:48.338Z,12.20
2023-05-14T19:16:18.329Z,12.30
2023-05-14T19:18:48.141Z,12.35
2023-05-14T19:21:17.968Z,13.65
2023-05-14T19:23:47.745Z,12.00
2023-05-14T19:26:17.716Z,12.23
2023-05-14T19:28:47.380Z,11.85
2023-05-14T19:31:17.524Z,12.35
2023-05-14T19:33:47.416Z,12.05
2023-05-14T19:36:17.210Z,12.32
2023-05-14T19:38:47.099Z,11.55
2023-05-14T19:41:16.975Z,12.00
2023-05-14T19:43:46.668Z,12.82
2023-05-14T19:46:16.896Z,13.93
2023-05-14T19:48:46.594Z,13.90
2023-05-14T19:51:16.490Z,15.43
2023-05-14T19:53:46.895Z,15.93
2023-05-14T19:56:17.278Z,15.13
2023-05-14T19:58:47.092Z,14.60
2023-05-14T20:01:16.939Z,15.85
2023-05-14T20:03:46.657Z,14.85
2023-05-14T20:06:16.755Z,15.68
2023-05-14T20:08:48.129Z,14.57
2023-05-14T20:11:19.703Z,15.50
2023-05-14T20:13:49.645Z,13.73
2023-05-14T20:16:19.289Z,13.18
2023-05-14T20:18:49.005Z,14.15
2023-05-14T20:21:21.259Z,14.13
2023-05-14T20:23:50.977Z,13.35
2023-05-14T20:26:20.686Z,13.60
2023-05-14T20:28:50.261Z,13.38
2023-05-14T20:31:20.889Z,13.95
2023-05-14T20:33:50.675Z,14.57
2023-05-14T20:36:20.338Z,12.85
2023-05-14T20:38:49.992Z,14.00
2023-05-14T20:41:19.616Z,13.25
2023-05-14T20:43:49.137Z,12.85
2023-05-14T20:46:18.837Z,12.70
2023-05-14T20:48:50.102Z,13.10
2023-05-14T20:51:19.673Z,12.98
2023-05-14T20:53:49.399Z,13.05
2023-05-14T20:56:19.233Z,14.40
2023-05-14T20:58:48.849Z,13.25
2023-05-14T21:01:18.520Z,13.40
2023-05-14T21:03:48.575Z,12.98
2023-05-14T21:06:18.239Z,13.27
2023-05-14T21:08:47.764Z,12.23
2023-05-14T21:11:17.361Z,13.15
2023-05-14T21:13:47.314Z,12.80
2023-05-14T21:16:16.988Z,12.85
2023-05-14T21:18:46.788Z,13.43
2023-05-14T21:21:16.512Z,12.88
2023-05-14T21:23:46.270Z,13.45
2023-05-14T21:26:15.922Z,11.57
2023-05-14T21:28:45.638Z,11.10
2023-05-14T21:31:15.268Z,11.77
2023-05-14T21:33:45.025Z,10.93
2023-05-14T21:36:14.726Z,11.40
2023-05-14T21:38:44.420Z,12.27
2023-05-14T21:41:13.983Z,12.10
2023-05-14T21:43:43.753Z,12.10
2023-05-14T21:46:13.728Z,11.10
2023-05-14T21:48:43.547Z,11.35
2023-05-14T21:51:13.198Z,10.93
2023-05-14T21:53:42.941Z,11.60
2023-05-14T21:56:12.819Z,11.27
2023-05-14T21:58:43.244Z,10.90
2023-05-14T22:01:13.247Z,12.30
2023-05-14T22:03:43.161Z,11.68
2023-05-14T22:06:12.850Z,11.05
2023-05-14T22:08:42.452Z,12.02
2023-05-14T22:11:11.976Z,12.10
2023-05-14T22:13:42.710Z,11.02
2023-05-14T22:16:14.394Z,11.48
2023-05-14T22:18:44.375Z,11.57
2023-05-14T22:21:14.093Z,11.88
2023-05-14T22:23:43.906Z,12.48
2023-05-14T22:26:13.807Z,11.60
2023-05-14T22:28:44.832Z,11.63
2023-05-14T22:31:14.501Z,13.25
2023-05-14T22:33:44.201Z,12.75
2023-05-14T22:36:13.930Z,13.82
2023-05-14T22:38:45.408Z,13.65
2023-05-14T22:41:15.276Z,13.70
2023-05-14T22:43:45.001Z,13.85
2023-05-14T22:46:15.115Z,14.40
2023-05-14T22:48:44.700Z,14.63
2023-05-14T22:51:14.276Z,15.15
2023-05-14T22:53:43.920Z,14.63
2023-05-14T22:56:13.743Z,14.70
2023-05-14T22:58:43.363Z,14.32
2023-05-14T23:01:13.050Z,14.48
2023-05-14T23:03:42.758Z,15.40
2023-05-14T23:06:15.318Z,14.40
2023-05-14T23:08:44.952Z,15.30
2023-05-14T23:11:14.995Z,14.93
2023-05-14T23:13:44.620Z,14.65
2023-05-14T23:16:14.328Z,20.73
2023-05-14T23:18:44.404Z,14.43
2023-05-14T23:21:15.289Z,14.20
2023-05-14T23:23:44.935Z,15.25
2023-05-14T23:26:14.621Z,14.77
2023-05-14T23:28:44.372Z,15.30
2023-05-14T23:31:13.988Z,17.48
2023-05-14T23:33:46.189Z,20.08
2023-05-14T23:36:15.931Z,17.80
2023-05-14T23:38:45.926Z,16.17
2023-05-14T23:41:15.666Z,14.93
2023-05-14T23:43:45.351Z,15.38
2023-05-14T23:46:15.114Z,13.90
2023-05-14T23:48:45.056Z,15.70
2023-05-14T23:51:14.632Z,15.52
2023-05-14T23:53:44.213Z,21.90
2023-05-14T23:56:14.595Z,17.42
2023-05-14T23:58:44.201Z,18.45
